Time;durP1;ratioP1;P1;durP2;ratioP2;P2;SDS_P1;SDS_P2;PMS_P1;PMS_P2;Temp;Humidity;BMP_temperature;BMP_pressure;BME280_temperature;BME280_humidity;BME280_pressure;Samples;Min_cycle;Max_cycle;Signal;HPM_P1;HPM_P2
2022/02/06 08:15:08;;;;;;;2.78;1.25;;;;;;;3.96;89.49;99028.56;5159782;27;20367;-86
2022/02/06 08:17:47;;;;;;;5.25;1.27;;;;;;;4.04;88.67;99017.06;5155409;27;20548;-87
2022/02/06 08:20:16;;;;;;;8.07;1.90;;;;;;;4.02;89.64;99019.91;5163225;27;20042;-86
2022/02/06 08:22:44;;;;;;;13.10;1.58;;;;;;;4.10;89.36;99010.28;5156101;27;20523;-86
2022/02/06 08:25:14;;;;;;;4.88;1.30;;;;;;;4.11;88.47;99020.00;5165093;27;20485;-86
2022/02/06 08:30:29;;;;;;;3.63;1.35;;;;;;;4.22;90.36;99018.00;5155808;27;20046;-85
2022/02/06 08:32:59;;;;;;;5.03;1.13;;;;;;;4.20;89.68;99022.69;5152516;27;20288;-86
2022/02/06 08:35:36;;;;;;;5.03;1.00;;;;;;;4.19;89.73;98999.44;5166717;27;20051;-85
2022/02/06 08:38:06;;;;;;;7.15;1.45;;;;;;;4.24;89.88;98997.16;5165700;27;20378;-85
2022/02/06 08:40:33;;;;;;;1.75;1.20;;;;;;;4.31;89.60;98999.28;5155135;27;20058;-86
2022/02/06 08:43:00;;;;;;;5.45;1.55;;;;;;;4.33;88.38;99003.50;5166464;27;20493;-86
2022/02/06 08:45:29;;;;;;;3.92;1.30;;;;;;;4.37;89.86;98991.44;5148815;27;20091;-85
2022/02/06 08:47:57;;;;;;;2.13;1.30;;;;;;;4.49;87.82;99012.78;5156753;27;20118;-85
2022/02/06 08:50:29;;;;;;;5.68;1.50;;;;;;;4.42;87.70;98991.81;5156335;27;20041;-86
2022/02/06 08:53:00;;;;;;;6.28;1.00;;;;;;;4.55;87.09;99014.88;5160378;27;20071;-87
2022/02/06 08:55:30;;;;;;;6.88;1.13;;;;;;;4.43;87.00;98987.31;5160933;27;20376;-86
2022/02/06 08:57:58;;;;;;;3.92;1.48;;;;;;;4.59;86.73;99005.47;5148061;27;20043;-87
2022/02/06 09:00:32;;;;;;;4.47;1.38;;;;;;;4.53;89.21;98992.63;5156047;27;20157;-85
2022/02/06 09:02:59;;;;;;;4.38;1.20;;;;;;;4.64;88.25;99013.09;5158489;27;20054;-85
2022/02/06 09:05:30;;;;;;;2.40;1.00;;;;;;;4.57;88.58;98988.63;5160341;27;20046;-85
2022/02/06 09:07:59;;;;;;;9.75;1.60;;;;;;;4.64;87.79;99005.91;5166188;27;20043;-85
2022/02/06 09:10:27;;;;;;;1.43;0.90;;;;;;;4.64;90.06;99002.34;5166704;27;20058;-85
2022/02/06 09:12:54;;;;;;;2.40;0.90;;;;;;;4.72;89.29;99000.59;5154752;27;20145;-85
2022/02/06 09:15:25;;;;;;;2.55;1.10;;;;;;;4.69;91.39;98991.97;5138300;27;20044;-85
2022/02/06 09:17:53;;;;;;;3.53;1.30;;;;;;;4.57;89.96;98972.47;5127289;27;20111;-86
2022/02/06 09:20:20;;;;;;;6.38;1.38;;;;;;;4.61;89.56;98980.09;5138742;27;20047;-86
2022/02/06 09:22:57;;;;;;;2.90;1.02;;;;;;;4.71;88.44;98981.88;5144459;27;20050;-85
2022/02/06 09:25:23;;;;;;;5.38;2.45;;;;;;;4.67;88.61;98973.28;5124677;27;20046;-85
2022/02/06 09:27:52;;;;;;;3.97;1.10;;;;;;;4.66;89.86;98960.81;5133309;27;20055;-85
2022/02/06 09:30:25;;;;;;;5.65;1.20;;;;;;;4.77;89.59;98960.59;5133896;27;20505;-85
2022/02/06 09:35:20;;;;;;;2.90;1.15;;;;;;;4.83;87.73;98977.97;5121487;27;20138;-85
2022/02/06 09:37:56;;;;;;;4.78;1.10;;;;;;;4.78;89.72;98947.97;5124887;27;20078;-85
2022/02/06 09:40:24;;;;;;;5.25;1.40;;;;;;;4.77;90.31;98943.56;5113441;27;20051;-85
2022/02/06 09:42:53;;;;;;;15.20;1.42;;;;;;;4.79;89.11;98928.97;5114507;27;20062;-84
2022/02/06 09:45:37;;;;;;;1.75;1.00;;;;;;;4.76;90.27;98917.66;5113948;27;20142;-84
2022/02/06 09:48:21;;;;;;;4.75;1.35;;;;;;;4.81;91.13;98922.59;5121586;27;20051;-86
2022/02/06 09:50:48;;;;;;;7.30;1.58;;;;;;;4.79;93.74;98920.88;5124853;27;20073;-86
2022/02/06 09:53:14;;;;;;;2.28;0.80;;;;;;;4.83;94.62;98931.34;5127877;27;20470;-85
2022/02/06 09:55:43;;;;;;;9.02;1.48;;;;;;;4.84;95.26;98931.19;5128228;27;20071;-86
2022/02/06 09:58:44;;;;;;;5.18;1.00;;;;;;;4.75;96.10;98906.03;5132488;27;20043;-85
2022/02/06 10:01:16;;;;;;;6.32;1.20;;;;;;;4.78;93.93;98910.25;5129928;27;20047;-86
2022/02/06 10:03:51;;;;;;;5.68;1.00;;;;;;;4.79;91.49;98893.94;5133346;27;20047;-86
2022/02/06 10:06:23;;;;;;;12.15;1.25;;;;;;;4.69;92.31;98873.50;5122201;27;20071;-86
2022/02/06 10:08:56;;;;;;;3.88;1.17;;;;;;;4.88;92.06;98900.25;5122012;27;20053;-86
2022/02/06 10:11:30;;;;;;;2.30;1.20;;;;;;;4.81;91.43;98880.31;5129903;27;20476;-86
2022/02/06 10:13:58;;;;;;;3.10;1.05;;;;;;;4.88;92.06;98884.09;5122431;27;20047;-86
2022/02/06 10:16:26;;;;;;;4.55;1.13;;;;;;;4.92;90.49;98863.06;5115163;27;20449;-86
2022/02/06 10:18:54;;;;;;;5.07;1.33;;;;;;;4.88;91.51;98859.00;5112826;28;20054;-86
2022/02/06 10:21:30;;;;;;;3.50;1.00;;;;;;;4.93;90.97;98862.06;5112205;27;20048;-86
2022/02/06 10:24:05;;;;;;;8.52;1.23;;;;;;;4.96;90.04;98850.97;5126127;27;20445;-85
2022/02/06 10:26:53;;;;;;;4.63;1.25;;;;;;;5.02;89.69;98838.75;5127675;27;20047;-86
2022/02/06 10:29:31;;;;;;;5.07;1.08;;;;;;;5.06;89.37;98835.56;5125790;27;20043;-86
2022/02/06 10:32:02;;;;;;;2.88;0.80;;;;;;;5.11;89.75;98838.63;5115380;27;20414;-86
2022/02/06 10:34:34;;;;;;;6.07;1.08;;;;;;;5.10;88.41;98825.31;5117363;27;20047;-86
2022/02/06 10:37:12;;;;;;;3.33;0.90;;;;;;;5.23;88.32;98828.44;5115824;27;20127;-85
2022/02/06 10:39:50;;;;;;;3.30;0.90;;;;;;;5.20;88.83;98831.44;5112842;27;20096;-86
2022/02/06 10:42:22;;;;;;;2.30;1.58;;;;;;;5.23;87.30;98814.13;5124900;27;20367;-86
2022/02/06 10:44:51;;;;;;;3.92;1.42;;;;;;;5.20;86.66;98801.81;5123656;27;20088;-86
2022/02/06 10:47:31;;;;;;;3.83;1.55;;;;;;;5.28;86.66;98801.00;5126619;27;20074;-86
2022/02/06 10:50:19;;;;;;;4.07;0.90;;;;;;;5.32;87.94;98788.91;5128130;27;20043;-85
2022/02/06 10:52:47;;;;;;;2.55;0.82;;;;;;;5.49;86.09;98792.50;5109703;27;21937;-86
2022/02/06 10:55:17;;;;;;;3.90;0.90;;;;;;;5.53;85.58;98801.16;5125367;27;20052;-86
2022/02/06 10:57:57;;;;;;;3.60;1.05;;;;;;;5.53;85.46;98772.31;5111513;27;20059;-86
2022/02/06 11:00:32;;;;;;;3.92;1.60;;;;;;;5.51;86.61;98760.88;5109934;28;20105;-85
2022/02/06 11:03:03;;;;;;;2.78;1.13;;;;;;;5.53;85.54;98761.53;5121559;27;20057;-86
2022/02/06 11:05:49;;;;;;;3.95;1.23;;;;;;;5.55;85.96;98737.09;5117128;27;20040;-86
2022/02/06 11:08:25;;;;;;;4.10;1.15;;;;;;;5.56;84.98;98723.47;5115180;27;20141;-86
2022/02/06 11:11:02;;;;;;;3.17;0.80;;;;;;;5.55;84.91;98723.63;5110510;27;20498;-86
2022/02/06 11:13:31;;;;;;;3.28;1.08;;;;;;;5.61;85.43;98734.59;5117665;27;20058;-86
2022/02/06 11:16:07;;;;;;;2.67;1.00;;;;;;;5.61;85.75;98715.72;5117801;27;20057;-86
2022/02/06 11:18:48;;;;;;;5.43;0.70;;;;;;;5.76;83.41;98734.81;5116791;27;20452;-86
2022/02/06 11:21:33;;;;;;;3.45;1.10;;;;;;;5.75;84.09;98722.34;5117471;27;20053;-86
2022/02/06 11:24:00;;;;;;;5.28;1.85;;;;;;;5.65;84.14;98703.59;5123771;27;20135;-86
2022/02/06 11:26:28;;;;;;;4.22;1.30;;;;;;;5.67;85.66;98698.91;5130335;27;20092;-86
2022/02/06 11:28:57;;;;;;;2.70;0.90;;;;;;;5.68;86.30;98694.34;5128156;27;20540;-86
2022/02/06 11:31:29;;;;;;;2.30;0.73;;;;;;;5.79;87.09;98703.97;5112266;27;20077;-86
2022/02/06 11:33:58;;;;;;;5.68;1.10;;;;;;;5.66;89.44;98693.63;5125055;27;20512;-86
2022/02/06 11:45:07;;;;;;;2.40;0.80;;;;;;;5.58;91.02;98678.28;5118323;27;20050;-86
2022/02/06 11:47:51;;;;;;;1.77;1.02;;;;;;;5.64;94.04;98680.31;5126819;27;20107;-86
2022/02/06 11:50:19;;;;;;;2.65;1.08;;;;;;;5.56;94.82;98657.91;5118429;27;20052;-85
2022/02/06 11:52:52;;;;;;;2.08;0.90;;;;;;;5.59;94.81;98677.28;5121913;27;20051;-86
2022/02/06 11:55:35;;;;;;;2.03;0.70;;;;;;;5.61;94.07;98666.34;5122512;27;20047;-85
2022/02/06 11:58:25;;;;;;;3.42;1.00;;;;;;;5.48;93.52;98642.56;5122578;27;20054;-85
2022/02/06 12:01:31;;;;;;;6.45;1.08;;;;;;;5.60;95.13;98641.22;5124276;27;20066;-85
2022/02/06 12:04:06;;;;;;;3.30;1.15;;;;;;;5.54;93.77;98619.47;5113628;27;20482;-86
2022/02/06 12:06:58;;;;;;;3.70;0.95;;;;;;;5.72;93.29;98633.66;5126805;27;20043;-86
2022/02/06 12:09:33;;;;;;;2.65;0.85;;;;;;;5.69;94.80;98628.59;5128761;27;20049;-86
2022/02/06 12:12:13;;;;;;;0.90;0.70;;;;;;;5.72;90.56;98593.22;5130262;27;20054;-86
2022/02/06 12:14:45;;;;;;;;;;;;;;;5.81;91.96;98610.22;5121214;27;20470;-87
2022/02/06 12:17:23;;;;;;;3.35;0.70;;;;;;;5.71;92.91;98604.16;5128952;27;19923;-86
2022/02/06 12:25:45;;;;;;;5.43;0.65;;;;;;;5.77;91.97;98550.38;5127131;28;20095;-87
2022/02/06 12:28:31;;;;;;;0.95;0.40;;;;;;;5.90;89.90;98562.50;5128899;28;20043;-87
2022/02/06 12:31:29;;;;;;;0.45;0.45;;;;;;;5.86;89.45;98537.72;5130394;27;20047;-89
2022/02/06 12:34:10;;;;;;;1.42;0.70;;;;;;;5.83;89.84;98554.25;5130191;27;20055;-86
2022/02/06 12:39:27;;;;;;;0.85;0.50;;;;;;;5.85;89.33;98539.56;5124877;27;20054;-86
2022/02/06 12:41:57;;;;;;;0.80;0.40;;;;;;;5.91;89.01;98534.53;5131176;27;20405;-85
2022/02/06 12:44:32;;;;;;;0.50;0.50;;;;;;;5.83;89.23;98511.09;5120464;27;20414;-85
2022/02/06 12:47:05;;;;;;;0.55;0.50;;;;;;;5.90;88.11;98514.81;5129493;27;20101;-85
2022/02/06 12:49:34;;;;;;;0.68;0.60;;;;;;;5.89;88.68;98502.31;5120562;27;20039;-86
2022/02/06 12:52:02;;;;;;;2.58;1.30;;;;;;;5.90;88.34;98508.56;5126885;27;20134;-86
2022/02/06 12:54:30;;;;;;;0.82;0.60;;;;;;;5.94;87.20;98477.53;5116846;27;20071;-85
2022/02/06 12:57:08;;;;;;;0.90;0.50;;;;;;;6.06;88.22;98519.34;5122454;27;20058;-86
2022/02/06 12:59:41;;;;;;;0.52;0.40;;;;;;;6.03;88.44;98487.31;5120649;27;20054;-86
2022/02/06 13:02:09;;;;;;;1.35;0.50;;;;;;;6.05;89.51;98484.44;5113674;27;20073;-86
2022/02/06 13:04:41;;;;;;;0.32;0.32;;;;;;;6.07;88.67;98480.56;5116231;27;20069;-85
2022/02/06 13:07:08;;;;;;;0.73;0.68;;;;;;;6.02;88.80;98483.78;5129777;27;20079;-85
2022/02/06 13:09:40;;;;;;;1.65;0.60;;;;;;;5.92;88.43;98452.59;5126590;27;20474;-87
2022/02/06 13:12:23;;;;;;;1.88;0.63;;;;;;;5.96;91.21;98462.84;5126443;27;20047;-84
2022/02/06 13:15:03;;;;;;;0.52;0.40;;;;;;;6.00;89.85;98436.38;5113015;27;20047;-87
2022/02/06 13:17:45;;;;;;;0.43;0.43;;;;;;;5.84;92.96;98434.53;5125101;27;20047;-86
2022/02/06 13:20:25;;;;;;;1.92;0.80;;;;;;;5.89;92.23;98434.88;5120905;27;20075;-86
2022/02/06 13:23:01;;;;;;;1.08;0.98;;;;;;;5.83;94.75;98441.78;5128440;27;20055;-85
2022/02/06 13:25:45;;;;;;;2.72;0.60;;;;;;;5.71;95.10;98409.97;5122297;27;20051;-85
2022/02/06 13:28:30;;;;;;;1.55;0.68;;;;;;;5.78;96.45;98425.31;5124082;27;20083;-85
2022/02/06 13:31:18;;;;;;;0.50;0.50;;;;;;;5.70;97.21;98400.19;5127181;27;20055;-85
2022/02/06 13:33:56;;;;;;;2.28;0.50;;;;;;;5.56;97.53;98380.19;5123987;27;20055;-86
2022/02/06 13:36:35;;;;;;;0.55;0.55;;;;;;;5.55;97.76;98400.91;5120513;27;20066;-86
2022/02/06 13:39:07;;;;;;;0.50;0.50;;;;;;;5.52;99.95;98386.94;5121838;27;20051;-84
2022/02/06 13:41:54;;;;;;;2.33;0.73;;;;;;;5.43;100.00;98367.22;5124778;27;20051;-84
2022/02/06 13:44:34;;;;;;;1.48;0.63;;;;;;;5.40;100.00;98384.56;5113093;28;20055;-85
2022/02/06 13:47:03;;;;;;;1.20;0.60;;;;;;;5.34;100.00;98381.72;5133159;27;20047;-85
2022/02/06 13:49:40;;;;;;;1.13;1.03;;;;;;;5.30;100.00;98368.59;5132494;27;20142;-85
2022/02/06 13:52:08;;;;;;;0.43;0.40;;;;;;;5.22;100.00;98373.16;5130320;27;20366;-87
2022/02/06 13:54:41;;;;;;;0.60;0.60;;;;;;;5.19;100.00;98363.53;5117505;27;20158;-85
2022/02/06 13:57:10;;;;;;;1.40;0.77;;;;;;;5.08;100.00;98375.50;5112405;28;20071;-85
2022/02/06 13:59:42;;;;;;;0.80;0.55;;;;;;;5.08;100.00;98351.28;5115757;27;21079;-85
2022/02/06 14:02:11;;;;;;;0.73;0.40;;;;;;;5.14;100.00;98374.00;5132993;27;20046;-85
2022/02/06 14:04:41;;;;;;;0.88;0.65;;;;;;;5.10;100.00;98373.50;5131472;27;20045;-84
2022/02/06 14:07:11;;;;;;;0.45;0.40;;;;;;;4.95;100.00;98341.03;5133671;27;20039;-85
2022/02/06 14:09:55;;;;;;;0.47;0.47;;;;;;;4.92;100.00;98343.19;5129533;27;20054;-86
2022/02/06 14:12:22;;;;;;;7.47;1.30;;;;;;;4.87;100.00;98340.19;5126014;27;20055;-86
2022/02/06 14:14:51;;;;;;;0.80;0.80;;;;;;;4.84;100.00;98335.13;5130495;27;20043;-86
2022/02/06 14:17:22;;;;;;;1.02;1.00;;;;;;;4.80;100.00;98329.22;5128963;27;20043;-86
2022/02/06 14:19:51;;;;;;;0.88;0.60;;;;;;;4.71;100.00;98320.31;5131288;27;20047;-87
2022/02/06 14:22:32;;;;;;;1.60;0.57;;;;;;;4.75;100.00;98334.28;5119397;27;20063;-87
2022/02/06 14:25:03;;;;;;;1.20;1.02;;;;;;;4.68;100.00;98314.41;5131860;27;20543;-86
2022/02/06 14:27:32;;;;;;;1.10;0.70;;;;;;;4.68;100.00;98301.81;5132949;27;20095;-87
2022/02/06 14:30:15;;;;;;;0.65;0.65;;;;;;;4.69;100.00;98311.56;5125281;27;20050;-86
2022/02/06 14:33:14;;;;;;;4.40;0.80;;;;;;;4.59;100.00;98303.66;5126756;27;20082;-86
2022/02/06 14:35:45;;;;;;;1.30;0.40;;;;;;;4.63;100.00;98311.41;5088811;28;20309;-87
2022/02/06 14:38:39;;;;;;;0.75;0.50;;;;;;;4.57;100.00;98296.75;5123799;27;20075;-86
2022/02/06 14:41:39;;;;;;;1.58;0.80;;;;;;;4.66;100.00;98294.91;5133497;27;20499;-87
2022/02/06 14:44:12;;;;;;;0.70;0.70;;;;;;;4.57;100.00;98291.38;5125000;27;20474;-86
2022/02/06 14:47:02;;;;;;;;;;;;;;;;;;;;;
2022/02/06 14:49:35;;;;;;;0.40;0.40;;;;;;;4.65;100.00;98288.66;5125245;27;20054;-86
2022/02/06 14:52:07;;;;;;;0.88;0.80;;;;;;;4.62;100.00;98272.84;5119951;27;20459;-87
2022/02/06 14:54:45;;;;;;;0.95;0.77;;;;;;;4.57;100.00;98253.69;5122409;27;20428;-87
2022/02/06 14:57:18;;;;;;;0.55;0.47;;;;;;;4.56;100.00;98246.59;5133566;27;20043;-86
2022/02/06 14:59:50;;;;;;;0.60;0.60;;;;;;;4.64;100.00;98245.75;5145363;27;20050;-86
2022/02/06 15:02:28;;;;;;;0.88;0.60;;;;;;;4.62;100.00;98251.31;5147874;27;20042;-86
2022/02/06 15:04:55;;;;;;;3.03;0.63;;;;;;;4.65;100.00;98253.66;5144474;27;20351;-83
2022/02/06 15:07:22;;;;;;;0.50;0.47;;;;;;;4.57;100.00;98230.28;5146829;27;20058;-86
2022/02/06 15:10:27;;;;;;;0.45;0.45;;;;;;;4.63;100.00;98252.16;5143675;27;20054;-86
2022/02/06 15:13:04;;;;;;;1.08;0.70;;;;;;;4.63;100.00;98258.38;5149298;27;20103;-86
2022/02/06 15:15:49;;;;;;;0.90;0.68;;;;;;;4.59;100.00;98262.41;5141304;27;20051;-85
2022/02/06 15:18:52;;;;;;;1.27;0.75;;;;;;;4.53;100.00;98247.81;5144681;27;20049;-87
2022/02/06 15:21:26;;;;;;;1.15;0.50;;;;;;;4.56;100.00;98236.69;5144270;27;20168;-86
2022/02/06 15:23:58;;;;;;;1.75;0.50;;;;;;;4.42;100.00;98219.34;5148382;27;20046;-86
2022/02/06 15:26:48;;;;;;;0.50;0.50;;;;;;;4.41;100.00;98223.06;5148262;27;20046;-86
2022/02/06 15:29:29;;;;;;;1.92;0.88;;;;;;;4.49;100.00;98230.31;5145507;27;20095;-87
2022/02/06 15:32:03;;;;;;;1.63;0.60;;;;;;;4.35;100.00;98215.69;5150604;27;20047;-86
2022/02/06 15:34:32;;;;;;;0.40;0.40;;;;;;;4.35;100.00;98206.75;5151409;27;20047;-88
2022/02/06 15:37:28;;;;;;;2.00;0.50;;;;;;;4.43;100.00;98206.75;5146166;27;20058;-87
2022/02/06 15:39:57;;;;;;;0.30;0.30;;;;;;;4.43;100.00;98204.91;5137839;27;20134;-86
2022/02/06 15:42:28;;;;;;;1.38;0.70;;;;;;;4.36;100.00;98190.44;5141560;27;20438;-86
2022/02/06 15:44:55;;;;;;;0.40;0.40;;;;;;;4.48;100.00;98225.91;5151141;27;20050;-87
2022/02/06 15:47:27;;;;;;;0.82;0.60;;;;;;;4.34;100.00;98188.94;5142796;27;20062;-86
2022/02/06 15:50:00;;;;;;;0.40;0.40;;;;;;;4.45;100.00;98182.38;5135940;27;20051;-86
2022/02/06 15:52:37;;;;;;;0.70;0.50;;;;;;;4.39;100.00;98183.88;5147729;27;20047;-87
2022/02/06 15:55:15;;;;;;;0.60;0.60;;;;;;;4.29;100.00;98170.63;5141782;27;20070;-86
2022/02/06 15:57:53;;;;;;;0.60;0.60;;;;;;;4.32;100.00;98172.09;5144409;27;20137;-87
2022/02/06 16:00:20;;;;;;;0.47;0.47;;;;;;;4.30;100.00;98161.50;5143471;27;20553;-87
2022/02/06 16:02:47;;;;;;;0.50;0.50;;;;;;;4.30;100.00;98152.63;5143407;27;20085;-86
2022/02/06 16:05:28;;;;;;;0.38;0.38;;;;;;;4.37;100.00;98159.00;5149219;27;20039;-87
2022/02/06 16:07:58;;;;;;;0.40;0.40;;;;;;;4.31;100.00;98151.63;5142486;27;20478;-86
2022/02/06 16:10:45;;;;;;;0.70;0.70;;;;;;;4.32;100.00;98142.50;5138016;27;20458;-86
2022/02/06 16:13:28;;;;;;;0.43;0.43;;;;;;;4.49;100.00;98140.66;5140555;27;20486;-87
2022/02/06 16:16:08;;;;;;;1.75;0.57;;;;;;;4.38;100.00;98141.81;5137020;27;20045;-88
2022/02/06 16:18:38;;;;;;;0.50;0.50;;;;;;;4.45;100.00;98128.53;5158521;27;20042;-89
2022/02/06 16:21:12;;;;;;;0.30;0.30;;;;;;;4.41;100.00;98133.41;5130813;27;20490;-86
2022/02/06 16:23:39;;;;;;;0.38;0.38;;;;;;;4.42;100.00;98121.66;5130799;27;20043;-87
2022/02/06 16:26:06;;;;;;;0.52;0.52;;;;;;;4.48;100.00;98137.09;5148411;27;20134;-87
2022/02/06 16:28:33;;;;;;;0.47;0.47;;;;;;;4.42;100.00;98127.84;5151711;27;20070;-87
2022/02/06 16:31:00;;;;;;;0.60;0.60;;;;;;;4.37;100.00;98108.69;5144024;27;20057;-86
2022/02/06 16:33:29;;;;;;;0.98;0.60;;;;;;;4.43;100.00;98096.41;5149876;27;20095;-85
2022/02/06 16:35:58;;;;;;;0.50;0.50;;;;;;;4.38;100.00;98078.09;5153442;27;20139;-86
2022/02/06 16:38:30;;;;;;;1.70;0.50;;;;;;;4.49;100.00;98084.97;5153710;27;20107;-87
2022/02/06 16:40:59;;;;;;;0.50;0.50;;;;;;;4.50;100.00;98086.66;5142376;27;20506;-86
2022/02/06 16:43:33;;;;;;;0.40;0.40;;;;;;;4.48;100.00;98082.44;5147072;27;20051;-86
2022/02/06 16:46:03;;;;;;;0.55;0.40;;;;;;;4.43;100.00;98056.06;5151524;27;20074;-87
2022/02/06 16:48:30;;;;;;;0.50;0.50;;;;;;;4.55;100.00;98092.34;5155995;27;20530;-87
2022/02/06 16:51:00;;;;;;;0.75;0.45;;;;;;;4.64;100.00;98076.16;5152114;27;20051;-86
2022/02/06 16:53:27;;;;;;;;;;;;;;;4.68;100.00;98072.97;5150400;27;20043;-86
2022/02/06 16:55:58;;;;;;;0.55;0.30;;;;;;;4.61;100.00;98078.19;5139079;27;19925;-86
2022/02/06 16:58:25;;;;;;;0.50;0.45;;;;;;;4.59;100.00;98058.69;5151210;27;20066;-87
2022/02/06 17:00:53;;;;;;;0.50;0.50;;;;;;;4.62;100.00;98060.19;5148469;27;20077;-87
2022/02/06 17:03:20;;;;;;;1.80;0.47;;;;;;;4.53;100.00;98042.38;5155072;27;20050;-87
2022/02/06 17:05:47;;;;;;;2.08;1.00;;;;;;;4.65;100.00;98050.91;5154892;27;20047;-87
2022/02/06 17:08:18;;;;;;;1.27;0.80;;;;;;;4.55;100.00;98030.44;5150437;27;20492;-87
2022/02/06 17:10:47;;;;;;;0.75;0.70;;;;;;;4.56;100.00;98023.19;5156978;27;20068;-88
2022/02/06 17:13:23;;;;;;;0.57;0.50;;;;;;;4.66;100.00;98034.59;5140681;27;20054;-83
2022/02/06 17:15:50;;;;;;;0.50;0.50;;;;;;;4.67;100.00;98028.19;5148405;27;20166;-86
2022/02/06 17:18:19;;;;;;;0.50;0.50;;;;;;;4.73;100.00;98032.06;5153946;27;20047;-87
2022/02/06 17:20:48;;;;;;;0.50;0.50;;;;;;;4.72;100.00;98012.34;5162635;27;20443;-88
2022/02/06 17:23:19;;;;;;;0.70;0.70;;;;;;;4.71;100.00;98026.84;5148207;27;20557;-88
2022/02/06 17:25:46;;;;;;;1.63;0.60;;;;;;;4.73;100.00;98019.41;5152572;27;20545;-87
2022/02/06 17:28:13;;;;;;;1.63;0.50;;;;;;;4.74;100.00;98021.13;5153153;27;20545;-87
2022/02/06 17:30:42;;;;;;;3.60;0.85;;;;;;;4.70;100.00;98003.63;5151470;27;20055;-87
2022/02/06 17:33:09;;;;;;;1.35;0.60;;;;;;;4.74;100.00;97991.50;5147404;27;20107;-87
2022/02/06 17:35:50;;;;;;;0.50;0.50;;;;;;;4.77;100.00;97991.13;5153651;27;20042;-88
2022/02/06 17:38:22;;;;;;;1.00;0.60;;;;;;;4.75;100.00;97986.94;5146018;27;20482;-87
2022/02/06 17:40:50;;;;;;;0.75;0.50;;;;;;;4.77;100.00;97992.97;5148354;27;20043;-88
2022/02/06 17:43:22;;;;;;;0.40;0.40;;;;;;;4.76;100.00;97981.38;5152999;27;20337;-87
2022/02/06 17:45:52;;;;;;;1.00;0.70;;;;;;;4.79;100.00;97993.66;5147665;27;20572;-87
2022/02/06 17:48:19;;;;;;;0.50;0.50;;;;;;;4.73;100.00;97981.72;5147616;27;20047;-88
2022/02/06 17:51:10;;;;;;;3.53;0.43;;;;;;;4.77;100.00;97996.53;5137256;27;20046;-87
2022/02/06 17:53:43;;;;;;;1.52;0.50;;;;;;;4.66;100.00;97967.28;5136891;27;20069;-87
2022/02/06 17:56:12;;;;;;;1.13;0.70;;;;;;;4.73;100.00;97968.25;5140721;27;20035;-88
2022/02/06 17:58:57;;;;;;;0.85;0.57;;;;;;;4.73;100.00;97962.06;5149070;27;20108;-87
2022/02/06 18:01:36;;;;;;;0.65;0.52;;;;;;;4.77;100.00;97964.22;5136607;27;20077;-87
2022/02/06 18:04:14;;;;;;;0.68;0.68;;;;;;;4.76;100.00;97951.75;5136239;27;20051;-87
2022/02/06 18:06:51;;;;;;;0.60;0.60;;;;;;;4.76;100.00;97959.84;5142498;27;20042;-87
2022/02/06 18:09:28;;;;;;;1.10;0.63;;;;;;;4.67;100.00;97931.28;5151160;27;20047;-87
2022/02/06 18:12:13;;;;;;;0.57;0.57;;;;;;;4.85;100.00;97957.94;5142265;27;20054;-88
2022/02/06 18:14:44;;;;;;;0.50;0.50;;;;;;;4.88;100.00;97957.56;5142785;27;20042;-88
2022/02/06 18:17:25;;;;;;;0.80;0.70;;;;;;;4.72;100.00;97934.28;5147728;27;20039;-88
2022/02/06 18:20:14;;;;;;;;;;;;;;;;;;;;;
2022/02/06 18:23:24;;;;;;;1.63;0.60;;;;;;;4.70;100.00;97922.03;5141587;27;20047;-88
2022/02/06 18:26:00;;;;;;;0.57;0.57;;;;;;;4.76;100.00;97915.94;5142787;27;20065;-89
2022/02/06 18:28:44;;;;;;;1.33;0.70;;;;;;;4.68;100.00;97910.56;5131980;27;20045;-88
2022/02/06 18:31:13;;;;;;;0.75;0.73;;;;;;;4.73;100.00;97917.13;5143508;27;20409;-87
2022/02/06 18:33:48;;;;;;;0.80;0.80;;;;;;;4.59;100.00;97896.31;5153041;27;20123;-89
2022/02/06 18:36:19;;;;;;;0.50;0.50;;;;;;;4.75;100.00;97915.06;5149937;27;20458;-88
2022/02/06 18:38:48;;;;;;;0.60;0.60;;;;;;;4.77;100.00;97915.75;5138004;27;20050;-89
2022/02/06 18:41:29;;;;;;;4.32;1.40;;;;;;;4.74;100.00;97931.41;5154103;27;20133;-88
2022/02/06 18:44:15;;;;;;;2.55;1.20;;;;;;;4.78;100.00;97924.66;5154238;27;20145;-89
2022/02/06 18:46:42;;;;;;;1.65;0.95;;;;;;;5.00;100.00;97951.75;5144048;27;20042;-90
2022/02/06 18:49:18;;;;;;;3.20;1.40;;;;;;;4.94;100.00;97958.72;5152479;27;20477;-89
2022/02/06 18:51:45;;;;;;;1.17;0.98;;;;;;;5.05;100.00;97974.47;5147447;27;20057;-90
2022/02/06 18:54:14;;;;;;;6.53;3.05;;;;;;;4.99;100.00;97980.56;5144034;27;20046;-89
2022/02/06 18:56:42;;;;;;;3.22;1.98;;;;;;;5.02;100.00;97977.50;5139390;27;20051;-89
2022/02/06 18:59:22;;;;;;;0.82;0.82;;;;;;;4.99;100.00;97974.34;5169216;27;20042;-88
2022/02/06 19:01:50;;;;;;;0.47;0.47;;;;;;;4.96;100.00;97962.91;5137937;27;20501;-88
2022/02/06 19:04:20;;;;;;;1.42;0.60;;;;;;;5.01;100.00;97972.31;5141924;27;20081;-90
2022/02/06 19:06:50;;;;;;;0.60;0.60;;;;;;;5.07;100.00;97968.91;5145029;27;20406;-87
2022/02/06 19:09:20;;;;;;;0.60;0.60;;;;;;;5.07;100.00;97974.28;5148855;27;20477;-86
2022/02/06 19:11:48;;;;;;;0.63;0.60;;;;;;;5.01;100.00;97988.47;5151982;27;20051;-89
2022/02/06 19:14:15;;;;;;;2.05;0.73;;;;;;;4.81;100.00;97958.47;5151601;27;20043;-88
2022/02/06 19:16:44;;;;;;;1.98;0.70;;;;;;;4.75;100.00;97977.00;5144092;27;20085;-88
2022/02/06 19:19:11;;;;;;;1.23;0.85;;;;;;;4.73;100.00;97965.56;5136268;27;20051;-89
2022/02/06 19:21:40;;;;;;;4.25;1.15;;;;;;;4.78;100.00;98000.88;5149769;27;20074;-91
2022/02/06 19:24:08;;;;;;;4.53;1.20;;;;;;;4.80;100.00;98003.38;5148765;27;20039;-89
2022/02/06 19:26:35;;;;;;;1.05;0.73;;;;;;;4.73;100.00;97997.06;5146018;27;20136;-89
2022/02/06 19:29:08;;;;;;;1.27;1.00;;;;;;;4.70;100.00;97984.78;5150354;27;20043;-89
2022/02/06 19:31:37;;;;;;;0.65;0.65;;;;;;;4.63;100.00;97999.13;5152738;27;20061;-90
2022/02/06 19:34:10;;;;;;;2.88;0.80;;;;;;;4.48;100.00;97982.88;5133939;27;20047;-88
2022/02/06 19:36:40;;;;;;;0.68;0.65;;;;;;;4.36;100.00;97977.84;5137009;27;20050;-91
2022/02/06 19:39:14;;;;;;;3.67;0.75;;;;;;;4.23;100.00;97974.88;5142201;27;20054;-87
2022/02/06 19:41:46;;;;;;;0.60;0.60;;;;;;;4.31;100.00;97977.56;5144329;27;20452;-88
2022/02/06 19:44:13;;;;;;;2.15;0.90;;;;;;;4.37;100.00;97978.72;5148919;27;20080;-88
2022/02/06 19:46:49;;;;;;;0.73;0.60;;;;;;;4.27;100.00;97961.94;5151564;27;20092;-89
2022/02/06 19:49:16;;;;;;;0.70;0.60;;;;;;;4.34;100.00;97971.00;5151379;27;20394;-88
2022/02/06 19:51:45;;;;;;;0.70;0.70;;;;;;;4.24;100.00;97955.03;5146867;27;20096;-89
2022/02/06 19:54:18;;;;;;;0.73;0.73;;;;;;;4.27;100.00;97952.00;5145786;27;20047;-88
2022/02/06 19:56:48;;;;;;;2.38;0.88;;;;;;;4.33;100.00;97963.91;5150950;27;20043;-88
2022/02/06 19:59:16;;;;;;;2.15;0.60;;;;;;;4.22;100.00;97939.06;5147012;27;20055;-89
2022/02/06 20:01:43;;;;;;;0.85;0.68;;;;;;;4.29;100.00;97947.31;5150113;27;20107;-89
2022/02/06 20:04:15;;;;;;;2.25;0.88;;;;;;;4.25;100.00;97927.13;5142947;27;20130;-89
2022/02/06 20:06:42;;;;;;;0.80;0.80;;;;;;;4.32;100.00;97932.63;5151777;27;20050;-86
2022/02/06 20:09:09;;;;;;;1.30;0.63;;;;;;;4.36;100.00;97959.00;5148904;27;20476;-88
2022/02/06 20:11:41;;;;;;;1.25;0.50;;;;;;;4.31;100.00;97937.19;5130764;27;20047;-87
2022/02/06 20:14:08;;;;;;;1.50;0.60;;;;;;;4.27;100.00;97933.16;5139390;27;20392;-87
2022/02/06 20:16:39;;;;;;;0.90;0.68;;;;;;;4.18;100.00;97926.97;5143105;27;20042;-87
2022/02/06 20:19:09;;;;;;;0.90;0.63;;;;;;;4.19;100.00;97939.41;5140831;27;20367;-87
2022/02/06 20:21:47;;;;;;;1.83;0.70;;;;;;;4.14;100.00;97938.25;5133040;27;20409;-89
2022/02/06 20:24:20;;;;;;;0.32;0.30;;;;;;;4.15;100.00;97930.00;5146071;27;20047;-90
2022/02/06 20:26:52;;;;;;;0.30;0.30;;;;;;;4.14;100.00;97933.75;5145191;27;20047;-89
2022/02/06 20:29:22;;;;;;;2.72;0.50;;;;;;;4.06;100.00;97921.16;5157322;27;20051;-93
2022/02/06 20:31:50;;;;;;;1.27;0.52;;;;;;;4.06;100.00;97921.16;5153706;27;20075;-91
2022/02/06 20:34:20;;;;;;;0.45;0.45;;;;;;;4.07;100.00;97936.25;5151084;27;20066;-94
2022/02/06 20:36:50;;;;;;;;;;;;;;;4.06;100.00;97944.50;5149808;27;20609;-88
2022/02/06 20:39:19;;;;;;;0.60;0.60;;;;;;;3.91;100.00;97925.56;5150525;27;20291;-88
2022/02/06 20:41:53;;;;;;;2.90;0.60;;;;;;;3.94;100.00;97919.00;5132080;27;20509;-89
2022/02/06 20:44:22;;;;;;;0.40;0.40;;;;;;;3.80;100.00;97910.66;5146560;27;20486;-88
2022/02/06 20:47:00;;;;;;;0.52;0.52;;;;;;;3.83;100.00;97915.66;5146435;27;20051;-89